sensor_id;sensor_type;location;lat;lon;timestamp;P1;durP1;ratioP1;P2;durP2;ratioP2
54923;SDS011;40825;52.270;20.984;2023-02-03T00:01:45;7.40;;;3.60;;
54923;SDS011;40825;52.270;20.984;2023-02-03T00:04:10;8.80;;;4.10;;
54923;SDS011;40825;52.270;20.984;2023-02-03T00:06:36;8.70;;;3.50;;
54923;SDS011;40825;52.270;20.984;2023-02-03T00:09:02;9.40;;;3.80;;
54923;SDS011;40825;52.270;20.984;2023-02-03T00:11:28;9.80;;;3.90;;
54923;SDS011;40825;52.270;20.984;2023-02-03T00:13:54;10.20;;;3.90;;
54923;SDS011;40825;52.270;20.984;2023-02-03T00:16:20;8.20;;;3.30;;
54923;SDS011;40825;52.270;20.984;2023-02-03T00:18:45;9.90;;;3.60;;
54923;SDS011;40825;52.270;20.984;2023-02-03T00:21:11;7.20;;;2.60;;
54923;SDS011;40825;52.270;20.984;2023-02-03T00:23:39;7.20;;;2.70;;
54923;SDS011;40825;52.270;20.984;2023-02-03T00:26:09;7.50;;;2.80;;
54923;SDS011;40825;52.270;20.984;2023-02-03T00:28:35;6.80;;;2.40;;
54923;SDS011;40825;52.270;20.984;2023-02-03T00:31:01;7.40;;;2.90;;
54923;SDS011;40825;52.270;20.984;2023-02-03T00:33:26;8.10;;;2.80;;
54923;SDS011;40825;52.270;20.984;2023-02-03T00:35:52;7.00;;;3.40;;
54923;SDS011;40825;52.270;20.984;2023-02-03T00:38:17;7.50;;;2.80;;
54923;SDS011;40825;52.270;20.984;2023-02-03T00:40:50;10.90;;;3.40;;
54923;SDS011;40825;52.270;20.984;2023-02-03T00:43:17;12.00;;;3.70;;
54923;SDS011;40825;52.270;20.984;2023-02-03T00:45:43;9.50;;;3.50;;
54923;SDS011;40825;52.270;20.984;2023-02-03T00:48:08;17.40;;;4.80;;
54923;SDS011;40825;52.270;20.984;2023-02-03T00:50:34;9.90;;;3.70;;
54923;SDS011;40825;52.270;20.984;2023-02-03T00:52:59;10.70;;;3.50;;
54923;SDS011;40825;52.270;20.984;2023-02-03T00:55:25;11.90;;;3.80;;
54923;SDS011;40825;52.270;20.984;2023-02-03T00:57:51;10.30;;;3.40;;
54923;SDS011;40825;52.270;20.984;2023-02-03T01:00:17;11.80;;;3.50;;
54923;SDS011;40825;52.270;20.984;2023-02-03T01:02:43;10.10;;;2.90;;
54923;SDS011;40825;52.270;20.984;2023-02-03T01:05:10;11.20;;;3.60;;
54923;SDS011;40825;52.270;20.984;2023-02-03T01:07:35;13.30;;;4.60;;
54923;SDS011;40825;52.270;20.984;2023-02-03T01:10:02;10.60;;;3.30;;
54923;SDS011;40825;52.270;20.984;2023-02-03T01:12:29;11.70;;;3.40;;
54923;SDS011;40825;52.270;20.984;2023-02-03T01:14:55;10.90;;;3.20;;
54923;SDS011;40825;52.270;20.984;2023-02-03T01:17:21;6.40;;;2.10;;
54923;SDS011;40825;52.270;20.984;2023-02-03T01:19:47;5.70;;;2.30;;
54923;SDS011;40825;52.270;20.984;2023-02-03T01:22:14;7.10;;;1.90;;
54923;SDS011;40825;52.270;20.984;2023-02-03T01:24:39;6.40;;;2.20;;
54923;SDS011;40825;52.270;20.984;2023-02-03T01:27:05;6.30;;;2.10;;
54923;SDS011;40825;52.270;20.984;2023-02-03T01:29:30;5.90;;;2.00;;
54923;SDS011;40825;52.270;20.984;2023-02-03T01:31:56;5.40;;;2.20;;
54923;SDS011;40825;52.270;20.984;2023-02-03T01:34:21;4.20;;;1.80;;
54923;SDS011;40825;52.270;20.984;2023-02-03T01:36:47;4.00;;;1.30;;
54923;SDS011;40825;52.270;20.984;2023-02-03T01:39:12;4.60;;;1.60;;
54923;SDS011;40825;52.270;20.984;2023-02-03T01:41:38;4.60;;;2.00;;
54923;SDS011;40825;52.270;20.984;2023-02-03T01:47:01;4.90;;;2.20;;
54923;SDS011;40825;52.270;20.984;2023-02-03T01:49:28;5.30;;;2.00;;
54923;SDS011;40825;52.270;20.984;2023-02-03T01:51:59;5.00;;;2.00;;
54923;SDS011;40825;52.270;20.984;2023-02-03T01:54:26;7.70;;;3.00;;
54923;SDS011;40825;52.270;20.984;2023-02-03T01:56:57;7.80;;;2.20;;
54923;SDS011;40825;52.270;20.984;2023-02-03T01:59:27;9.30;;;2.10;;
54923;SDS011;40825;52.270;20.984;2023-02-03T02:01:55;4.90;;;1.60;;
54923;SDS011;40825;52.270;20.984;2023-02-03T02:04:23;7.80;;;2.50;;
54923;SDS011;40825;52.270;20.984;2023-02-03T02:06:54;5.00;;;1.70;;
54923;SDS011;40825;52.270;20.984;2023-02-03T02:09:22;5.70;;;2.10;;
54923;SDS011;40825;52.270;20.984;2023-02-03T02:11:49;6.00;;;2.00;;
54923;SDS011;40825;52.270;20.984;2023-02-03T02:14:15;4.50;;;2.00;;
54923;SDS011;40825;52.270;20.984;2023-02-03T02:35:31;5.70;;;1.90;;
54923;SDS011;40825;52.270;20.984;2023-02-03T02:41:22;3.60;;;1.30;;
54923;SDS011;40825;52.270;20.984;2023-02-03T02:43:58;3.50;;;1.10;;
54923;SDS011;40825;52.270;20.984;2023-02-03T02:46:36;5.10;;;1.30;;
54923;SDS011;40825;52.270;20.984;2023-02-03T02:51:38;3.10;;;0.90;;
54923;SDS011;40825;52.270;20.984;2023-02-03T02:54:09;4.80;;;1.20;;
54923;SDS011;40825;52.270;20.984;2023-02-03T02:56:39;3.20;;;0.90;;
54923;SDS011;40825;52.270;20.984;2023-02-03T02:59:07;4.60;;;1.20;;
54923;SDS011;40825;52.270;20.984;2023-02-03T03:01:34;2.60;;;1.40;;
54923;SDS011;40825;52.270;20.984;2023-02-03T03:04:00;3.80;;;1.10;;
54923;SDS011;40825;52.270;20.984;2023-02-03T03:07:03;4.40;;;1.50;;
54923;SDS011;40825;52.270;20.984;2023-02-03T03:09:24;6.10;;;1.80;;
54923;SDS011;40825;52.270;20.984;2023-02-03T03:12:01;4.20;;;1.50;;
54923;SDS011;40825;52.270;20.984;2023-02-03T03:14:34;6.30;;;1.50;;
54923;SDS011;40825;52.270;20.984;2023-02-03T03:17:02;3.70;;;1.30;;
54923;SDS011;40825;52.270;20.984;2023-02-03T03:19:31;4.00;;;1.20;;
54923;SDS011;40825;52.270;20.984;2023-02-03T03:22:01;5.60;;;1.30;;
54923;SDS011;40825;52.270;20.984;2023-02-03T03:24:33;6.20;;;1.50;;
54923;SDS011;40825;52.270;20.984;2023-02-03T03:27:09;4.10;;;1.40;;
54923;SDS011;40825;52.270;20.984;2023-02-03T03:29:43;4.40;;;1.70;;
54923;SDS011;40825;52.270;20.984;2023-02-03T03:32:14;3.60;;;1.10;;
54923;SDS011;40825;52.270;20.984;2023-02-03T03:34:40;2.90;;;1.00;;
54923;SDS011;40825;52.270;20.984;2023-02-03T03:44:51;7.80;;;1.90;;
54923;SDS011;40825;52.270;20.984;2023-02-03T03:47:26;5.10;;;1.70;;
54923;SDS011;40825;52.270;20.984;2023-02-03T03:49:53;4.70;;;1.80;;
54923;SDS011;40825;52.270;20.984;2023-02-03T03:52:23;7.30;;;2.00;;
54923;SDS011;40825;52.270;20.984;2023-02-03T03:54:53;5.80;;;1.60;;
54923;SDS011;40825;52.270;20.984;2023-02-03T03:57:22;6.60;;;2.60;;
54923;SDS011;40825;52.270;20.984;2023-02-03T03:59:51;6.00;;;2.20;;
54923;SDS011;40825;52.270;20.984;2023-02-03T04:02:18;6.60;;;2.00;;
54923;SDS011;40825;52.270;20.984;2023-02-03T04:04:46;9.50;;;2.20;;
54923;SDS011;40825;52.270;20.984;2023-02-03T04:07:12;9.10;;;2.80;;
54923;SDS011;40825;52.270;20.984;2023-02-03T04:09:39;6.10;;;2.20;;
54923;SDS011;40825;52.270;20.984;2023-02-03T04:12:21;7.30;;;2.70;;
54923;SDS011;40825;52.270;20.984;2023-02-03T04:14:48;8.10;;;3.20;;
54923;SDS011;40825;52.270;20.984;2023-02-03T04:17:13;6.30;;;2.50;;
54923;SDS011;40825;52.270;20.984;2023-02-03T04:19:39;9.10;;;3.20;;
54923;SDS011;40825;52.270;20.984;2023-02-03T04:22:04;7.90;;;3.00;;
54923;SDS011;40825;52.270;20.984;2023-02-03T04:24:30;6.40;;;2.60;;
54923;SDS011;40825;52.270;20.984;2023-02-03T04:26:55;7.50;;;3.40;;
54923;SDS011;40825;52.270;20.984;2023-02-03T04:29:21;9.10;;;3.10;;
54923;SDS011;40825;52.270;20.984;2023-02-03T04:31:46;6.40;;;2.50;;
54923;SDS011;40825;52.270;20.984;2023-02-03T04:34:12;6.30;;;2.70;;
54923;SDS011;40825;52.270;20.984;2023-02-03T04:36:37;9.60;;;2.80;;
54923;SDS011;40825;52.270;20.984;2023-02-03T04:39:03;8.30;;;3.40;;
54923;SDS011;40825;52.270;20.984;2023-02-03T04:41:28;7.40;;;3.30;;
54923;SDS011;40825;52.270;20.984;2023-02-03T04:43:54;8.10;;;3.00;;
54923;SDS011;40825;52.270;20.984;2023-02-03T04:46:19;10.80;;;3.10;;
54923;SDS011;40825;52.270;20.984;2023-02-03T04:48:45;7.20;;;2.80;;
54923;SDS011;40825;52.270;20.984;2023-02-03T04:51:10;7.90;;;2.80;;
54923;SDS011;40825;52.270;20.984;2023-02-03T04:53:36;9.20;;;3.40;;
54923;SDS011;40825;52.270;20.984;2023-02-03T04:56:01;7.70;;;3.20;;
54923;SDS011;40825;52.270;20.984;2023-02-03T04:58:27;10.50;;;4.10;;
54923;SDS011;40825;52.270;20.984;2023-02-03T05:00:53;9.80;;;3.80;;
54923;SDS011;40825;52.270;20.984;2023-02-03T05:03:19;13.30;;;3.90;;
54923;SDS011;40825;52.270;20.984;2023-02-03T05:05:45;10.60;;;4.60;;
54923;SDS011;40825;52.270;20.984;2023-02-03T05:08:10;9.90;;;4.50;;
54923;SDS011;40825;52.270;20.984;2023-02-03T05:10:36;12.20;;;5.10;;
54923;SDS011;40825;52.270;20.984;2023-02-03T05:13:01;10.90;;;4.50;;
54923;SDS011;40825;52.270;20.984;2023-02-03T05:15:27;12.10;;;4.40;;
54923;SDS011;40825;52.270;20.984;2023-02-03T05:17:53;10.80;;;4.70;;
54923;SDS011;40825;52.270;20.984;2023-02-03T05:20:19;9.20;;;4.50;;
54923;SDS011;40825;52.270;20.984;2023-02-03T05:22:46;10.40;;;4.60;;
54923;SDS011;40825;52.270;20.984;2023-02-03T05:25:12;9.50;;;5.10;;
54923;SDS011;40825;52.270;20.984;2023-02-03T05:27:38;10.50;;;4.90;;
54923;SDS011;40825;52.270;20.984;2023-02-03T05:30:05;9.90;;;4.50;;
54923;SDS011;40825;52.270;20.984;2023-02-03T05:32:32;11.70;;;3.90;;
54923;SDS011;40825;52.270;20.984;2023-02-03T05:34:57;9.30;;;3.90;;
54923;SDS011;40825;52.270;20.984;2023-02-03T05:37:22;9.10;;;4.00;;
54923;SDS011;40825;52.270;20.984;2023-02-03T05:39:48;9.00;;;4.30;;
54923;SDS011;40825;52.270;20.984;2023-02-03T05:42:13;10.30;;;4.40;;
54923;SDS011;40825;52.270;20.984;2023-02-03T05:44:39;9.00;;;3.90;;
54923;SDS011;40825;52.270;20.984;2023-02-03T05:47:04;10.30;;;4.10;;
54923;SDS011;40825;52.270;20.984;2023-02-03T05:49:30;10.40;;;4.60;;
54923;SDS011;40825;52.270;20.984;2023-02-03T05:51:55;8.80;;;3.70;;
54923;SDS011;40825;52.270;20.984;2023-02-03T05:54:21;9.60;;;3.70;;
54923;SDS011;40825;52.270;20.984;2023-02-03T05:56:47;11.60;;;3.50;;
54923;SDS011;40825;52.270;20.984;2023-02-03T05:59:12;8.80;;;3.70;;
54923;SDS011;40825;52.270;20.984;2023-02-03T06:01:38;8.50;;;3.50;;
54923;SDS011;40825;52.270;20.984;2023-02-03T06:04:03;10.70;;;3.90;;
54923;SDS011;40825;52.270;20.984;2023-02-03T06:06:30;10.30;;;4.00;;
54923;SDS011;40825;52.270;20.984;2023-02-03T06:09:03;8.30;;;3.20;;
54923;SDS011;40825;52.270;20.984;2023-02-03T06:11:31;9.90;;;3.30;;
54923;SDS011;40825;52.270;20.984;2023-02-03T06:13:57;10.50;;;3.80;;
54923;SDS011;40825;52.270;20.984;2023-02-03T06:16:24;10.80;;;4.50;;
54923;SDS011;40825;52.270;20.984;2023-02-03T06:18:51;11.50;;;5.00;;
54923;SDS011;40825;52.270;20.984;2023-02-03T06:21:18;9.70;;;3.50;;
54923;SDS011;40825;52.270;20.984;2023-02-03T06:23:44;12.30;;;4.50;;
54923;SDS011;40825;52.270;20.984;2023-02-03T06:26:09;11.10;;;3.90;;
54923;SDS011;40825;52.270;20.984;2023-02-03T06:28:35;10.60;;;3.90;;
54923;SDS011;40825;52.270;20.984;2023-02-03T06:31:02;9.70;;;3.70;;
54923;SDS011;40825;52.270;20.984;2023-02-03T06:33:29;10.10;;;3.40;;
54923;SDS011;40825;52.270;20.984;2023-02-03T06:35:55;10.80;;;4.40;;
54923;SDS011;40825;52.270;20.984;2023-02-03T06:38:20;10.60;;;3.50;;
54923;SDS011;40825;52.270;20.984;2023-02-03T06:40:46;12.60;;;4.10;;
54923;SDS011;40825;52.270;20.984;2023-02-03T06:43:12;8.60;;;3.70;;
54923;SDS011;40825;52.270;20.984;2023-02-03T06:45:38;8.60;;;3.70;;
54923;SDS011;40825;52.270;20.984;2023-02-03T06:48:04;8.50;;;4.40;;
54923;SDS011;40825;52.270;20.984;2023-02-03T06:50:29;10.30;;;4.50;;
54923;SDS011;40825;52.270;20.984;2023-02-03T06:52:55;12.40;;;4.80;;
54923;SDS011;40825;52.270;20.984;2023-02-03T06:55:20;10.10;;;4.50;;
54923;SDS011;40825;52.270;20.984;2023-02-03T06:57:46;8.10;;;3.50;;
54923;SDS011;40825;52.270;20.984;2023-02-03T07:00:13;9.90;;;4.60;;
54923;SDS011;40825;52.270;20.984;2023-02-03T07:02:40;10.70;;;4.70;;
54923;SDS011;40825;52.270;20.984;2023-02-03T07:05:06;9.70;;;3.70;;
54923;SDS011;40825;52.270;20.984;2023-02-03T07:07:31;9.30;;;3.90;;
54923;SDS011;40825;52.270;20.984;2023-02-03T07:09:58;11.40;;;4.10;;
54923;SDS011;40825;52.270;20.984;2023-02-03T07:12:25;11.90;;;4.90;;
54923;SDS011;40825;52.270;20.984;2023-02-03T07:14:50;15.30;;;5.30;;
54923;SDS011;40825;52.270;20.984;2023-02-03T07:17:16;11.50;;;4.90;;
54923;SDS011;40825;52.270;20.984;2023-02-03T07:19:41;13.30;;;6.20;;
54923;SDS011;40825;52.270;20.984;2023-02-03T07:22:08;11.10;;;4.80;;
54923;SDS011;40825;52.270;20.984;2023-02-03T07:24:35;11.20;;;5.80;;
54923;SDS011;40825;52.270;20.984;2023-02-03T07:27:00;13.10;;;5.00;;
54923;SDS011;40825;52.270;20.984;2023-02-03T07:29:26;13.10;;;5.50;;
54923;SDS011;40825;52.270;20.984;2023-02-03T07:31:52;9.40;;;3.90;;
54923;SDS011;40825;52.270;20.984;2023-02-03T07:34:17;12.90;;;5.70;;
54923;SDS011;40825;52.270;20.984;2023-02-03T07:36:43;10.40;;;4.90;;
54923;SDS011;40825;52.270;20.984;2023-02-03T07:39:08;14.60;;;6.60;;
54923;SDS011;40825;52.270;20.984;2023-02-03T07:41:33;11.50;;;5.40;;
54923;SDS011;40825;52.270;20.984;2023-02-03T07:43:59;9.80;;;4.90;;
54923;SDS011;40825;52.270;20.984;2023-02-03T07:46:24;11.40;;;5.20;;
54923;SDS011;40825;52.270;20.984;2023-02-03T07:48:50;11.20;;;4.60;;
54923;SDS011;40825;52.270;20.984;2023-02-03T07:51:15;9.70;;;4.20;;
54923;SDS011;40825;52.270;20.984;2023-02-03T07:53:41;9.50;;;3.90;;
54923;SDS011;40825;52.270;20.984;2023-02-03T07:56:06;8.80;;;3.30;;
54923;SDS011;40825;52.270;20.984;2023-02-03T07:58:32;7.80;;;3.50;;
54923;SDS011;40825;52.270;20.984;2023-02-03T08:00:58;8.80;;;3.50;;
54923;SDS011;40825;52.270;20.984;2023-02-03T08:03:24;8.70;;;3.40;;
54923;SDS011;40825;52.270;20.984;2023-02-03T08:05:49;9.50;;;3.70;;
54923;SDS011;40825;52.270;20.984;2023-02-03T08:08:16;7.70;;;3.50;;
54923;SDS011;40825;52.270;20.984;2023-02-03T08:10:41;8.40;;;2.90;;
54923;SDS011;40825;52.270;20.984;2023-02-03T08:13:06;10.60;;;3.20;;
54923;SDS011;40825;52.270;20.984;2023-02-03T08:15:32;9.20;;;3.00;;
54923;SDS011;40825;52.270;20.984;2023-02-03T08:17:57;8.60;;;4.00;;
54923;SDS011;40825;52.270;20.984;2023-02-03T08:20:23;12.10;;;3.40;;
54923;SDS011;40825;52.270;20.984;2023-02-03T08:22:49;12.10;;;3.70;;
54923;SDS011;40825;52.270;20.984;2023-02-03T08:25:14;8.70;;;2.80;;
54923;SDS011;40825;52.270;20.984;2023-02-03T08:27:40;8.60;;;2.90;;
54923;SDS011;40825;52.270;20.984;2023-02-03T08:30:06;8.60;;;3.40;;
54923;SDS011;40825;52.270;20.984;2023-02-03T08:32:35;9.30;;;3.10;;
54923;SDS011;40825;52.270;20.984;2023-02-03T08:35:01;7.00;;;2.70;;
54923;SDS011;40825;52.270;20.984;2023-02-03T08:37:26;7.40;;;3.10;;
54923;SDS011;40825;52.270;20.984;2023-02-03T08:39:54;9.30;;;3.60;;
54923;SDS011;40825;52.270;20.984;2023-02-03T08:42:19;9.30;;;3.00;;
54923;SDS011;40825;52.270;20.984;2023-02-03T08:44:45;6.80;;;2.80;;
54923;SDS011;40825;52.270;20.984;2023-02-03T08:47:11;7.90;;;3.00;;
54923;SDS011;40825;52.270;20.984;2023-02-03T08:49:36;8.70;;;2.80;;
54923;SDS011;40825;52.270;20.984;2023-02-03T08:52:04;10.00;;;3.00;;
54923;SDS011;40825;52.270;20.984;2023-02-03T08:54:31;7.90;;;2.80;;
54923;SDS011;40825;52.270;20.984;2023-02-03T08:56:57;8.10;;;3.30;;
54923;SDS011;40825;52.270;20.984;2023-02-03T08:59:23;8.70;;;2.90;;
54923;SDS011;40825;52.270;20.984;2023-02-03T09:01:49;6.80;;;2.60;;
54923;SDS011;40825;52.270;20.984;2023-02-03T09:04:16;7.40;;;2.70;;
54923;SDS011;40825;52.270;20.984;2023-02-03T09:06:44;6.60;;;2.70;;
54923;SDS011;40825;52.270;20.984;2023-02-03T09:09:12;5.50;;;2.30;;
54923;SDS011;40825;52.270;20.984;2023-02-03T09:11:39;7.50;;;2.60;;
54923;SDS011;40825;52.270;20.984;2023-02-03T09:14:05;8.30;;;2.30;;
54923;SDS011;40825;52.270;20.984;2023-02-03T09:16:31;7.90;;;2.30;;
54923;SDS011;40825;52.270;20.984;2023-02-03T09:18:56;8.10;;;2.50;;
54923;SDS011;40825;52.270;20.984;2023-02-03T09:21:22;6.30;;;2.20;;
54923;SDS011;40825;52.270;20.984;2023-02-03T09:23:48;6.00;;;2.20;;
54923;SDS011;40825;52.270;20.984;2023-02-03T09:26:14;6.50;;;1.90;;
54923;SDS011;40825;52.270;20.984;2023-02-03T09:28:40;7.50;;;2.60;;
54923;SDS011;40825;52.270;20.984;2023-02-03T09:31:10;5.60;;;1.50;;
54923;SDS011;40825;52.270;20.984;2023-02-03T09:33:37;8.70;;;2.50;;
54923;SDS011;40825;52.270;20.984;2023-02-03T09:36:04;8.60;;;2.20;;
54923;SDS011;40825;52.270;20.984;2023-02-03T09:38:32;7.70;;;2.40;;
54923;SDS011;40825;52.270;20.984;2023-02-03T09:43:47;5.90;;;1.80;;
54923;SDS011;40825;52.270;20.984;2023-02-03T09:46:16;7.10;;;2.10;;
54923;SDS011;40825;52.270;20.984;2023-02-03T09:48:46;6.00;;;1.90;;
54923;SDS011;40825;52.270;20.984;2023-02-03T09:51:33;6.30;;;2.00;;
54923;SDS011;40825;52.270;20.984;2023-02-03T09:54:06;6.70;;;2.20;;
54923;SDS011;40825;52.270;20.984;2023-02-03T09:56:42;6.20;;;2.40;;
54923;SDS011;40825;52.270;20.984;2023-02-03T09:59:17;5.80;;;1.80;;
54923;SDS011;40825;52.270;20.984;2023-02-03T10:01:49;6.60;;;2.20;;
54923;SDS011;40825;52.270;20.984;2023-02-03T10:04:25;5.70;;;1.70;;
54923;SDS011;40825;52.270;20.984;2023-02-03T10:07:25;5.70;;;1.80;;
54923;SDS011;40825;52.270;20.984;2023-02-03T10:13:05;6.00;;;2.10;;
54923;SDS011;40825;52.270;20.984;2023-02-03T10:18:28;6.60;;;2.20;;
54923;SDS011;40825;52.270;20.984;2023-02-03T10:20:59;7.60;;;2.50;;
54923;SDS011;40825;52.270;20.984;2023-02-03T10:23:32;6.30;;;2.00;;
54923;SDS011;40825;52.270;20.984;2023-02-03T10:26:02;5.40;;;2.00;;
54923;SDS011;40825;52.270;20.984;2023-02-03T10:28:34;5.80;;;1.90;;
54923;SDS011;40825;52.270;20.984;2023-02-03T10:31:06;5.00;;;1.60;;
54923;SDS011;40825;52.270;20.984;2023-02-03T10:33:41;5.40;;;1.40;;
54923;SDS011;40825;52.270;20.984;2023-02-03T10:39:02;4.90;;;1.10;;
54923;SDS011;40825;52.270;20.984;2023-02-03T10:41:42;3.60;;;1.00;;
54923;SDS011;40825;52.270;20.984;2023-02-03T10:44:08;4.30;;;1.20;;
54923;SDS011;40825;52.270;20.984;2023-02-03T10:46:38;3.10;;;1.00;;
54923;SDS011;40825;52.270;20.984;2023-02-03T10:49:06;3.90;;;1.40;;
54923;SDS011;40825;52.270;20.984;2023-02-03T10:51:49;3.20;;;1.20;;
54923;SDS011;40825;52.270;20.984;2023-02-03T10:57:12;5.20;;;1.60;;
54923;SDS011;40825;52.270;20.984;2023-02-03T10:59:40;3.50;;;1.50;;
54923;SDS011;40825;52.270;20.984;2023-02-03T11:02:08;4.90;;;1.30;;
54923;SDS011;40825;52.270;20.984;2023-02-03T11:04:46;5.00;;;1.80;;
54923;SDS011;40825;52.270;20.984;2023-02-03T11:07:24;3.50;;;1.10;;
54923;SDS011;40825;52.270;20.984;2023-02-03T11:09:51;3.30;;;1.10;;
54923;SDS011;40825;52.270;20.984;2023-02-03T11:12:19;5.00;;;1.80;;
54923;SDS011;40825;52.270;20.984;2023-02-03T11:14:49;4.70;;;1.40;;
54923;SDS011;40825;52.270;20.984;2023-02-03T11:17:20;3.60;;;1.40;;
54923;SDS011;40825;52.270;20.984;2023-02-03T11:19:55;4.60;;;1.40;;
54923;SDS011;40825;52.270;20.984;2023-02-03T11:22:43;5.00;;;1.30;;
54923;SDS011;40825;52.270;20.984;2023-02-03T11:25:16;5.70;;;2.00;;
54923;SDS011;40825;52.270;20.984;2023-02-03T11:27:52;3.80;;;1.20;;
54923;SDS011;40825;52.270;20.984;2023-02-03T11:30:26;4.70;;;2.10;;
54923;SDS011;40825;52.270;20.984;2023-02-03T11:32:55;7.60;;;1.50;;
54923;SDS011;40825;52.270;20.984;2023-02-03T11:35:27;4.40;;;1.10;;
54923;SDS011;40825;52.270;20.984;2023-02-03T11:37:56;6.80;;;1.80;;
54923;SDS011;40825;52.270;20.984;2023-02-03T11:40:25;5.40;;;1.40;;
54923;SDS011;40825;52.270;20.984;2023-02-03T11:45:25;4.60;;;1.30;;
54923;SDS011;40825;52.270;20.984;2023-02-03T11:50:29;4.00;;;0.90;;
54923;SDS011;40825;52.270;20.984;2023-02-03T11:58:52;5.90;;;1.50;;
54923;SDS011;40825;52.270;20.984;2023-02-03T12:04:36;4.40;;;1.10;;
54923;SDS011;40825;52.270;20.984;2023-02-03T12:15:05;5.50;;;1.60;;
54923;SDS011;40825;52.270;20.984;2023-02-03T12:28:38;5.40;;;1.40;;
54923;SDS011;40825;52.270;20.984;2023-02-03T12:36:51;5.40;;;1.70;;
54923;SDS011;40825;52.270;20.984;2023-02-03T12:39:28;4.00;;;2.00;;
54923;SDS011;40825;52.270;20.984;2023-02-03T12:41:59;4.10;;;1.40;;
54923;SDS011;40825;52.270;20.984;2023-02-03T12:44:30;7.00;;;1.30;;
54923;SDS011;40825;52.270;20.984;2023-02-03T12:47:06;5.70;;;1.60;;
54923;SDS011;40825;52.270;20.984;2023-02-03T12:49:46;7.10;;;1.90;;
54923;SDS011;40825;52.270;20.984;2023-02-03T12:52:20;6.00;;;1.50;;
54923;SDS011;40825;52.270;20.984;2023-02-03T12:57:43;5.30;;;1.50;;
54923;SDS011;40825;52.270;20.984;2023-02-03T13:00:35;5.90;;;1.90;;
54923;SDS011;40825;52.270;20.984;2023-02-03T13:06:05;4.50;;;1.60;;
54923;SDS011;40825;52.270;20.984;2023-02-03T13:08:40;4.20;;;1.30;;
54923;SDS011;40825;52.270;20.984;2023-02-03T13:13:50;6.80;;;1.80;;
54923;SDS011;40825;52.270;20.984;2023-02-03T13:16:23;5.30;;;1.80;;
54923;SDS011;40825;52.270;20.984;2023-02-03T13:18:57;7.70;;;2.50;;
54923;SDS011;40825;52.270;20.984;2023-02-03T13:21:27;6.40;;;1.80;;
54923;SDS011;40825;52.270;20.984;2023-02-03T13:23:53;6.50;;;2.40;;
54923;SDS011;40825;52.270;20.984;2023-02-03T13:26:22;7.70;;;2.80;;
54923;SDS011;40825;52.270;20.984;2023-02-03T13:35:23;6.80;;;2.50;;
54923;SDS011;40825;52.270;20.984;2023-02-03T13:38:02;5.70;;;2.40;;
54923;SDS011;40825;52.270;20.984;2023-02-03T13:40:43;8.30;;;2.70;;
54923;SDS011;40825;52.270;20.984;2023-02-03T13:43:23;7.90;;;2.60;;
54923;SDS011;40825;52.270;20.984;2023-02-03T13:45:53;8.00;;;3.80;;
54923;SDS011;40825;52.270;20.984;2023-02-03T13:48:20;5.90;;;2.60;;
54923;SDS011;40825;52.270;20.984;2023-02-03T13:50:48;6.70;;;2.80;;
54923;SDS011;40825;52.270;20.984;2023-02-03T13:53:26;9.60;;;3.10;;
54923;SDS011;40825;52.270;20.984;2023-02-03T13:56:02;6.60;;;3.10;;
54923;SDS011;40825;52.270;20.984;2023-02-03T13:58:37;8.50;;;2.80;;
54923;SDS011;40825;52.270;20.984;2023-02-03T14:04:02;8.30;;;2.90;;
54923;SDS011;40825;52.270;20.984;2023-02-03T14:14:42;9.80;;;3.40;;
54923;SDS011;40825;52.270;20.984;2023-02-03T14:20:00;13.40;;;3.80;;
54923;SDS011;40825;52.270;20.984;2023-02-03T14:22:27;9.50;;;3.40;;
54923;SDS011;40825;52.270;20.984;2023-02-03T14:24:55;9.10;;;4.10;;
54923;SDS011;40825;52.270;20.984;2023-02-03T14:27:26;10.70;;;3.80;;
54923;SDS011;40825;52.270;20.984;2023-02-03T14:30:05;8.70;;;3.90;;
54923;SDS011;40825;52.270;20.984;2023-02-03T14:35:18;8.40;;;3.80;;
54923;SDS011;40825;52.270;20.984;2023-02-03T14:37:55;9.50;;;4.10;;
54923;SDS011;40825;52.270;20.984;2023-02-03T14:40:28;11.50;;;4.70;;
54923;SDS011;40825;52.270;20.984;2023-02-03T14:46:08;9.40;;;4.40;;
54923;SDS011;40825;52.270;20.984;2023-02-03T14:49:06;10.30;;;4.50;;
54923;SDS011;40825;52.270;20.984;2023-02-03T14:52:06;9.10;;;4.30;;
54923;SDS011;40825;52.270;20.984;2023-02-03T14:57:47;8.50;;;4.00;;
54923;SDS011;40825;52.270;20.984;2023-02-03T15:05:39;11.90;;;5.70;;
54923;SDS011;40825;52.270;20.984;2023-02-03T15:10:54;12.90;;;4.60;;
54923;SDS011;40825;52.270;20.984;2023-02-03T15:13:27;12.90;;;5.90;;
54923;SDS011;40825;52.270;20.984;2023-02-03T15:15:58;12.00;;;4.80;;
54923;SDS011;40825;52.270;20.984;2023-02-03T15:18:30;13.10;;;5.90;;
54923;SDS011;40825;52.270;20.984;2023-02-03T15:21:00;14.50;;;4.80;;
54923;SDS011;40825;52.270;20.984;2023-02-03T15:23:28;12.00;;;5.10;;
54923;SDS011;40825;52.270;20.984;2023-02-03T15:25:56;13.40;;;5.70;;
54923;SDS011;40825;52.270;20.984;2023-02-03T15:28:23;10.20;;;4.20;;
54923;SDS011;40825;52.270;20.984;2023-02-03T15:30:53;13.50;;;5.60;;
54923;SDS011;40825;52.270;20.984;2023-02-03T15:33:29;12.50;;;5.40;;
54923;SDS011;40825;52.270;20.984;2023-02-03T15:35:58;12.70;;;5.00;;
54923;SDS011;40825;52.270;20.984;2023-02-03T15:38:29;11.70;;;5.60;;
54923;SDS011;40825;52.270;20.984;2023-02-03T15:41:00;12.60;;;6.00;;
54923;SDS011;40825;52.270;20.984;2023-02-03T15:43:32;11.70;;;6.20;;
54923;SDS011;40825;52.270;20.984;2023-02-03T15:46:04;16.90;;;7.60;;
54923;SDS011;40825;52.270;20.984;2023-02-03T15:51:26;15.40;;;7.30;;
54923;SDS011;40825;52.270;20.984;2023-02-03T15:54:20;14.50;;;6.40;;
54923;SDS011;40825;52.270;20.984;2023-02-03T15:56:55;15.20;;;5.60;;
54923;SDS011;40825;52.270;20.984;2023-02-03T15:59:34;10.40;;;5.40;;
54923;SDS011;40825;52.270;20.984;2023-02-03T16:02:15;11.40;;;4.70;;
54923;SDS011;40825;52.270;20.984;2023-02-03T16:04:44;11.30;;;6.10;;
54923;SDS011;40825;52.270;20.984;2023-02-03T16:07:15;8.80;;;4.40;;
54923;SDS011;40825;52.270;20.984;2023-02-03T16:09:55;10.90;;;4.30;;
54923;SDS011;40825;52.270;20.984;2023-02-03T16:12:26;11.70;;;5.40;;
54923;SDS011;40825;52.270;20.984;2023-02-03T16:14:57;13.70;;;5.70;;
54923;SDS011;40825;52.270;20.984;2023-02-03T16:17:28;10.30;;;4.30;;
54923;SDS011;40825;52.270;20.984;2023-02-03T16:23:16;11.90;;;5.30;;
54923;SDS011;40825;52.270;20.984;2023-02-03T16:26:00;12.10;;;5.10;;
54923;SDS011;40825;52.270;20.984;2023-02-03T16:28:26;12.00;;;5.10;;
54923;SDS011;40825;52.270;20.984;2023-02-03T16:31:14;12.80;;;5.90;;
54923;SDS011;40825;52.270;20.984;2023-02-03T16:34:36;14.00;;;5.90;;
54923;SDS011;40825;52.270;20.984;2023-02-03T16:37:25;13.50;;;5.60;;
54923;SDS011;40825;52.270;20.984;2023-02-03T16:40:11;13.20;;;5.70;;
54923;SDS011;40825;52.270;20.984;2023-02-03T16:42:57;18.90;;;6.50;;
54923;SDS011;40825;52.270;20.984;2023-02-03T16:45:42;15.90;;;6.40;;
54923;SDS011;40825;52.270;20.984;2023-02-03T16:48:26;14.40;;;6.70;;
54923;SDS011;40825;52.270;20.984;2023-02-03T16:51:12;16.60;;;6.60;;
54923;SDS011;40825;52.270;20.984;2023-02-03T16:53:40;12.80;;;6.30;;
54923;SDS011;40825;52.270;20.984;2023-02-03T16:56:08;16.40;;;7.20;;
54923;SDS011;40825;52.270;20.984;2023-02-03T16:58:35;14.60;;;7.00;;
54923;SDS011;40825;52.270;20.984;2023-02-03T17:01:01;15.20;;;7.80;;
54923;SDS011;40825;52.270;20.984;2023-02-03T17:03:29;16.70;;;6.50;;
54923;SDS011;40825;52.270;20.984;2023-02-03T17:06:00;16.60;;;6.50;;